sensor_id;sensor_type;location;lat;lon;timestamp;P1;durP1;ratioP1;P2;durP2;ratioP2
9306;SDS011;4691;47.612;7.610;2022-10-16T00:00:02;10.80;;;6.07;;
9306;SDS011;4691;47.612;7.610;2022-10-16T00:02:28;7.63;;;5.32;;
9306;SDS011;4691;47.612;7.610;2022-10-16T00:04:53;21.30;;;7.82;;
9306;SDS011;4691;47.612;7.610;2022-10-16T00:07:27;9.13;;;4.80;;
9306;SDS011;4691;47.612;7.610;2022-10-16T00:09:52;25.52;;;12.90;;
9306;SDS011;4691;47.612;7.610;2022-10-16T00:12:18;24.38;;;10.13;;
9306;SDS011;4691;47.612;7.610;2022-10-16T00:14:44;20.88;;;9.95;;
9306;SDS011;4691;47.612;7.610;2022-10-16T00:17:09;18.17;;;7.22;;
9306;SDS011;4691;47.612;7.610;2022-10-16T00:19:34;12.52;;;6.18;;
9306;SDS011;4691;47.612;7.610;2022-10-16T00:22:00;15.93;;;8.55;;
9306;SDS011;4691;47.612;7.610;2022-10-16T00:24:25;14.38;;;6.63;;
9306;SDS011;4691;47.612;7.610;2022-10-16T00:26:50;11.30;;;5.68;;
9306;SDS011;4691;47.612;7.610;2022-10-16T00:29:16;12.70;;;5.40;;
9306;SDS011;4691;47.612;7.610;2022-10-16T00:31:41;10.35;;;5.22;;
9306;SDS011;4691;47.612;7.610;2022-10-16T00:34:06;10.55;;;5.32;;
9306;SDS011;4691;47.612;7.610;2022-10-16T00:36:34;20.20;;;5.60;;
9306;SDS011;4691;47.612;7.610;2022-10-16T00:38:59;13.18;;;4.63;;
9306;SDS011;4691;47.612;7.610;2022-10-16T00:41:25;8.63;;;4.93;;
9306;SDS011;4691;47.612;7.610;2022-10-16T00:43:52;8.15;;;5.07;;
9306;SDS011;4691;47.612;7.610;2022-10-16T00:46:39;11.70;;;5.80;;
9306;SDS011;4691;47.612;7.610;2022-10-16T00:51:37;7.78;;;4.65;;
9306;SDS011;4691;47.612;7.610;2022-10-16T00:54:11;11.57;;;6.20;;
9306;SDS011;4691;47.612;7.610;2022-10-16T00:56:39;14.00;;;7.55;;
9306;SDS011;4691;47.612;7.610;2022-10-16T00:59:07;10.73;;;5.35;;
9306;SDS011;4691;47.612;7.610;2022-10-16T01:01:39;17.30;;;6.38;;
9306;SDS011;4691;47.612;7.610;2022-10-16T01:04:04;11.30;;;6.13;;
9306;SDS011;4691;47.612;7.610;2022-10-16T01:06:36;9.50;;;5.22;;
9306;SDS011;4691;47.612;7.610;2022-10-16T01:09:23;11.48;;;5.22;;
9306;SDS011;4691;47.612;7.610;2022-10-16T01:17:51;6.22;;;4.13;;
9306;SDS011;4691;47.612;7.610;2022-10-16T01:20:26;8.48;;;4.50;;
9306;SDS011;4691;47.612;7.610;2022-10-16T01:28:08;9.68;;;6.15;;
9306;SDS011;4691;47.612;7.610;2022-10-16T01:30:37;11.77;;;4.57;;
9306;SDS011;4691;47.612;7.610;2022-10-16T01:33:08;12.68;;;4.30;;
9306;SDS011;4691;47.612;7.610;2022-10-16T01:35:44;6.55;;;3.83;;
9306;SDS011;4691;47.612;7.610;2022-10-16T01:38:17;5.57;;;3.95;;
9306;SDS011;4691;47.612;7.610;2022-10-16T01:40:52;15.65;;;3.47;;
9306;SDS011;4691;47.612;7.610;2022-10-16T01:44:06;8.32;;;3.65;;
9306;SDS011;4691;47.612;7.610;2022-10-16T01:46:16;7.75;;;4.13;;
9306;SDS011;4691;47.612;7.610;2022-10-16T01:48:45;7.03;;;3.90;;
9306;SDS011;4691;47.612;7.610;2022-10-16T01:51:12;8.18;;;4.10;;
9306;SDS011;4691;47.612;7.610;2022-10-16T01:53:40;8.88;;;3.30;;
9306;SDS011;4691;47.612;7.610;2022-10-16T01:56:09;9.27;;;3.30;;
9306;SDS011;4691;47.612;7.610;2022-10-16T01:58:37;9.13;;;3.75;;
9306;SDS011;4691;47.612;7.610;2022-10-16T02:01:10;5.65;;;3.13;;
9306;SDS011;4691;47.612;7.610;2022-10-16T02:03:40;5.18;;;3.05;;
9306;SDS011;4691;47.612;7.610;2022-10-16T02:06:08;7.40;;;3.90;;
9306;SDS011;4691;47.612;7.610;2022-10-16T02:08:36;7.15;;;3.75;;
9306;SDS011;4691;47.612;7.610;2022-10-16T02:11:02;11.10;;;4.30;;
9306;SDS011;4691;47.612;7.610;2022-10-16T02:13:29;14.27;;;5.15;;
9306;SDS011;4691;47.612;7.610;2022-10-16T02:15:58;9.45;;;5.65;;
9306;SDS011;4691;47.612;7.610;2022-10-16T02:19:32;10.82;;;4.60;;
9306;SDS011;4691;47.612;7.610;2022-10-16T02:21:59;8.77;;;5.40;;
9306;SDS011;4691;47.612;7.610;2022-10-16T02:29:40;17.65;;;6.97;;
9306;SDS011;4691;47.612;7.610;2022-10-16T02:32:10;9.48;;;4.85;;
9306;SDS011;4691;47.612;7.610;2022-10-16T02:34:37;12.02;;;4.95;;
9306;SDS011;4691;47.612;7.610;2022-10-16T02:37:05;8.70;;;5.20;;
9306;SDS011;4691;47.612;7.610;2022-10-16T02:39:32;7.85;;;4.70;;
9306;SDS011;4691;47.612;7.610;2022-10-16T02:41:58;10.40;;;4.75;;
9306;SDS011;4691;47.612;7.610;2022-10-16T02:44:23;11.65;;;3.80;;
9306;SDS011;4691;47.612;7.610;2022-10-16T02:46:48;9.88;;;3.67;;
9306;SDS011;4691;47.612;7.610;2022-10-16T02:49:14;7.88;;;3.40;;
9306;SDS011;4691;47.612;7.610;2022-10-16T02:51:39;5.28;;;2.78;;
9306;SDS011;4691;47.612;7.610;2022-10-16T02:54:04;3.90;;;2.75;;
9306;SDS011;4691;47.612;7.610;2022-10-16T02:56:30;8.40;;;3.45;;
9306;SDS011;4691;47.612;7.610;2022-10-16T02:58:56;6.03;;;3.35;;
9306;SDS011;4691;47.612;7.610;2022-10-16T03:01:21;9.25;;;3.75;;
9306;SDS011;4691;47.612;7.610;2022-10-16T03:03:47;7.45;;;5.03;;
9306;SDS011;4691;47.612;7.610;2022-10-16T03:06:12;10.75;;;6.72;;
9306;SDS011;4691;47.612;7.610;2022-10-16T03:08:38;7.35;;;4.20;;
9306;SDS011;4691;47.612;7.610;2022-10-16T03:11:03;9.90;;;4.13;;
9306;SDS011;4691;47.612;7.610;2022-10-16T03:13:28;10.85;;;4.47;;
9306;SDS011;4691;47.612;7.610;2022-10-16T03:15:54;8.13;;;4.13;;
9306;SDS011;4691;47.612;7.610;2022-10-16T03:18:19;7.18;;;4.65;;
9306;SDS011;4691;47.612;7.610;2022-10-16T03:20:44;10.90;;;4.47;;
9306;SDS011;4691;47.612;7.610;2022-10-16T03:23:10;8.30;;;3.88;;
9306;SDS011;4691;47.612;7.610;2022-10-16T03:25:35;12.98;;;4.35;;
9306;SDS011;4691;47.612;7.610;2022-10-16T03:28:00;6.65;;;3.70;;
9306;SDS011;4691;47.612;7.610;2022-10-16T03:30:26;6.90;;;3.00;;
9306;SDS011;4691;47.612;7.610;2022-10-16T03:32:52;3.60;;;2.90;;
9306;SDS011;4691;47.612;7.610;2022-10-16T03:35:19;6.68;;;3.22;;
9306;SDS011;4691;47.612;7.610;2022-10-16T03:37:45;5.45;;;3.05;;
9306;SDS011;4691;47.612;7.610;2022-10-16T03:40:10;8.50;;;3.25;;
9306;SDS011;4691;47.612;7.610;2022-10-16T03:42:36;10.20;;;3.85;;
9306;SDS011;4691;47.612;7.610;2022-10-16T03:45:01;6.57;;;3.58;;
9306;SDS011;4691;47.612;7.610;2022-10-16T03:47:29;10.55;;;3.90;;
9306;SDS011;4691;47.612;7.610;2022-10-16T03:49:57;11.90;;;4.05;;
9306;SDS011;4691;47.612;7.610;2022-10-16T03:52:23;10.73;;;4.93;;
9306;SDS011;4691;47.612;7.610;2022-10-16T03:54:48;6.90;;;3.88;;
9306;SDS011;4691;47.612;7.610;2022-10-16T03:57:14;8.57;;;4.10;;
9306;SDS011;4691;47.612;7.610;2022-10-16T03:59:39;6.15;;;3.58;;
9306;SDS011;4691;47.612;7.610;2022-10-16T04:02:04;8.35;;;4.03;;
9306;SDS011;4691;47.612;7.610;2022-10-16T04:04:32;10.57;;;4.43;;
9306;SDS011;4691;47.612;7.610;2022-10-16T04:06:57;12.68;;;4.70;;
9306;SDS011;4691;47.612;7.610;2022-10-16T04:09:23;7.43;;;4.05;;
9306;SDS011;4691;47.612;7.610;2022-10-16T04:11:50;8.70;;;3.65;;
9306;SDS011;4691;47.612;7.610;2022-10-16T04:14:15;7.57;;;3.95;;
9306;SDS011;4691;47.612;7.610;2022-10-16T04:16:41;6.70;;;3.30;;
9306;SDS011;4691;47.612;7.610;2022-10-16T04:19:06;9.48;;;3.25;;
9306;SDS011;4691;47.612;7.610;2022-10-16T04:21:31;5.85;;;3.25;;
9306;SDS011;4691;47.612;7.610;2022-10-16T04:23:57;7.30;;;3.55;;
9306;SDS011;4691;47.612;7.610;2022-10-16T04:26:22;5.93;;;3.15;;
9306;SDS011;4691;47.612;7.610;2022-10-16T04:28:47;9.13;;;3.03;;
9306;SDS011;4691;47.612;7.610;2022-10-16T04:31:13;7.68;;;2.90;;
9306;SDS011;4691;47.612;7.610;2022-10-16T04:33:38;4.55;;;2.63;;
9306;SDS011;4691;47.612;7.610;2022-10-16T04:36:03;5.03;;;2.50;;
9306;SDS011;4691;47.612;7.610;2022-10-16T04:38:29;4.72;;;2.28;;
9306;SDS011;4691;47.612;7.610;2022-10-16T04:40:54;5.70;;;2.95;;
9306;SDS011;4691;47.612;7.610;2022-10-16T04:43:20;6.85;;;3.40;;
9306;SDS011;4691;47.612;7.610;2022-10-16T04:45:46;6.03;;;3.00;;
9306;SDS011;4691;47.612;7.610;2022-10-16T04:48:11;3.67;;;2.22;;
9306;SDS011;4691;47.612;7.610;2022-10-16T04:50:36;11.63;;;5.00;;
9306;SDS011;4691;47.612;7.610;2022-10-16T04:53:02;9.00;;;2.53;;
9306;SDS011;4691;47.612;7.610;2022-10-16T04:55:27;6.47;;;2.75;;
9306;SDS011;4691;47.612;7.610;2022-10-16T04:57:53;7.63;;;2.53;;
9306;SDS011;4691;47.612;7.610;2022-10-16T05:00:18;4.53;;;2.67;;
9306;SDS011;4691;47.612;7.610;2022-10-16T05:02:44;5.28;;;2.88;;
9306;SDS011;4691;47.612;7.610;2022-10-16T05:05:09;11.90;;;3.13;;
9306;SDS011;4691;47.612;7.610;2022-10-16T05:07:34;5.25;;;2.90;;
9306;SDS011;4691;47.612;7.610;2022-10-16T05:10:00;8.55;;;2.88;;
9306;SDS011;4691;47.612;7.610;2022-10-16T05:12:25;4.00;;;2.65;;
9306;SDS011;4691;47.612;7.610;2022-10-16T05:14:50;6.50;;;2.92;;
9306;SDS011;4691;47.612;7.610;2022-10-16T05:17:16;7.20;;;3.00;;
9306;SDS011;4691;47.612;7.610;2022-10-16T05:19:41;11.52;;;3.13;;
9306;SDS011;4691;47.612;7.610;2022-10-16T05:22:06;4.45;;;2.60;;
9306;SDS011;4691;47.612;7.610;2022-10-16T05:24:32;7.82;;;2.65;;
9306;SDS011;4691;47.612;7.610;2022-10-16T05:26:57;6.63;;;2.88;;
9306;SDS011;4691;47.612;7.610;2022-10-16T05:29:22;5.13;;;3.90;;
9306;SDS011;4691;47.612;7.610;2022-10-16T05:31:51;9.05;;;4.00;;
9306;SDS011;4691;47.612;7.610;2022-10-16T05:34:18;8.18;;;4.43;;
9306;SDS011;4691;47.612;7.610;2022-10-16T05:36:43;13.13;;;9.00;;
9306;SDS011;4691;47.612;7.610;2022-10-16T05:39:10;7.35;;;3.65;;
9306;SDS011;4691;47.612;7.610;2022-10-16T05:41:36;5.30;;;2.78;;
9306;SDS011;4691;47.612;7.610;2022-10-16T05:44:03;6.35;;;3.38;;
9306;SDS011;4691;47.612;7.610;2022-10-16T05:46:29;10.27;;;3.92;;
9306;SDS011;4691;47.612;7.610;2022-10-16T05:48:54;8.52;;;4.00;;
9306;SDS011;4691;47.612;7.610;2022-10-16T05:51:20;10.48;;;7.68;;
9306;SDS011;4691;47.612;7.610;2022-10-16T05:53:45;11.43;;;7.82;;
9306;SDS011;4691;47.612;7.610;2022-10-16T05:56:10;16.35;;;6.38;;
9306;SDS011;4691;47.612;7.610;2022-10-16T05:58:37;16.25;;;12.27;;
9306;SDS011;4691;47.612;7.610;2022-10-16T06:01:06;13.48;;;8.40;;
9306;SDS011;4691;47.612;7.610;2022-10-16T06:03:34;13.38;;;6.57;;
9306;SDS011;4691;47.612;7.610;2022-10-16T06:06:07;14.40;;;5.05;;
9306;SDS011;4691;47.612;7.610;2022-10-16T06:08:36;9.85;;;6.50;;
9306;SDS011;4691;47.612;7.610;2022-10-16T06:11:05;6.80;;;4.60;;
9306;SDS011;4691;47.612;7.610;2022-10-16T06:13:32;13.88;;;4.95;;
9306;SDS011;4691;47.612;7.610;2022-10-16T06:16:00;4.88;;;2.95;;
9306;SDS011;4691;47.612;7.610;2022-10-16T06:18:27;5.13;;;3.20;;
9306;SDS011;4691;47.612;7.610;2022-10-16T06:20:53;6.15;;;3.85;;
9306;SDS011;4691;47.612;7.610;2022-10-16T06:23:19;6.70;;;3.83;;
9306;SDS011;4691;47.612;7.610;2022-10-16T06:25:45;5.18;;;3.08;;
9306;SDS011;4691;47.612;7.610;2022-10-16T06:28:10;11.63;;;4.80;;
9306;SDS011;4691;47.612;7.610;2022-10-16T06:30:36;6.57;;;4.43;;
9306;SDS011;4691;47.612;7.610;2022-10-16T06:33:01;12.43;;;5.18;;
9306;SDS011;4691;47.612;7.610;2022-10-16T06:35:26;15.43;;;5.50;;
9306;SDS011;4691;47.612;7.610;2022-10-16T06:37:52;11.00;;;4.70;;
9306;SDS011;4691;47.612;7.610;2022-10-16T06:40:18;10.63;;;5.38;;
9306;SDS011;4691;47.612;7.610;2022-10-16T06:42:43;12.90;;;5.40;;
9306;SDS011;4691;47.612;7.610;2022-10-16T06:45:09;9.68;;;4.35;;
9306;SDS011;4691;47.612;7.610;2022-10-16T06:47:34;11.45;;;5.30;;
9306;SDS011;4691;47.612;7.610;2022-10-16T06:50:00;10.75;;;4.90;;
9306;SDS011;4691;47.612;7.610;2022-10-16T06:52:27;6.70;;;4.50;;
9306;SDS011;4691;47.612;7.610;2022-10-16T06:54:53;11.23;;;4.82;;
9306;SDS011;4691;47.612;7.610;2022-10-16T06:57:18;12.15;;;4.95;;
9306;SDS011;4691;47.612;7.610;2022-10-16T06:59:44;10.98;;;5.50;;
9306;SDS011;4691;47.612;7.610;2022-10-16T07:02:09;9.75;;;4.90;;
9306;SDS011;4691;47.612;7.610;2022-10-16T07:04:35;12.65;;;5.32;;
9306;SDS011;4691;47.612;7.610;2022-10-16T07:07:01;17.42;;;5.47;;
9306;SDS011;4691;47.612;7.610;2022-10-16T07:09:27;7.07;;;4.85;;
9306;SDS011;4691;47.612;7.610;2022-10-16T07:11:52;12.02;;;5.35;;
9306;SDS011;4691;47.612;7.610;2022-10-16T07:14:18;12.40;;;5.43;;
9306;SDS011;4691;47.612;7.610;2022-10-16T07:16:46;10.73;;;5.68;;
9306;SDS011;4691;47.612;7.610;2022-10-16T07:19:11;11.73;;;5.50;;
9306;SDS011;4691;47.612;7.610;2022-10-16T07:21:39;10.93;;;5.30;;
9306;SDS011;4691;47.612;7.610;2022-10-16T07:24:05;9.98;;;4.40;;
9306;SDS011;4691;47.612;7.610;2022-10-16T07:26:33;11.98;;;5.30;;
9306;SDS011;4691;47.612;7.610;2022-10-16T07:29:00;9.15;;;4.50;;
9306;SDS011;4691;47.612;7.610;2022-10-16T07:31:26;7.35;;;4.75;;
9306;SDS011;4691;47.612;7.610;2022-10-16T07:33:54;9.57;;;4.82;;
9306;SDS011;4691;47.612;7.610;2022-10-16T07:36:20;7.30;;;4.50;;
9306;SDS011;4691;47.612;7.610;2022-10-16T07:38:46;7.50;;;4.60;;
9306;SDS011;4691;47.612;7.610;2022-10-16T07:41:14;7.53;;;4.32;;
9306;SDS011;4691;47.612;7.610;2022-10-16T07:43:45;12.57;;;5.00;;
9306;SDS011;4691;47.612;7.610;2022-10-16T07:46:15;6.97;;;4.32;;
9306;SDS011;4691;47.612;7.610;2022-10-16T07:48:41;9.45;;;4.50;;
9306;SDS011;4691;47.612;7.610;2022-10-16T07:51:11;7.57;;;4.18;;
9306;SDS011;4691;47.612;7.610;2022-10-16T07:53:37;12.55;;;4.38;;
9306;SDS011;4691;47.612;7.610;2022-10-16T07:56:06;6.22;;;3.33;;
9306;SDS011;4691;47.612;7.610;2022-10-16T07:58:33;8.38;;;3.67;;
9306;SDS011;4691;47.612;7.610;2022-10-16T08:01:05;5.25;;;3.65;;
9306;SDS011;4691;47.612;7.610;2022-10-16T08:03:31;7.35;;;3.13;;
9306;SDS011;4691;47.612;7.610;2022-10-16T08:05:57;5.68;;;2.97;;
9306;SDS011;4691;47.612;7.610;2022-10-16T08:08:23;4.78;;;2.72;;
9306;SDS011;4691;47.612;7.610;2022-10-16T08:10:51;10.23;;;3.22;;
9306;SDS011;4691;47.612;7.610;2022-10-16T08:13:19;6.85;;;3.00;;
9306;SDS011;4691;47.612;7.610;2022-10-16T08:15:48;6.75;;;3.20;;
9306;SDS011;4691;47.612;7.610;2022-10-16T08:18:13;12.00;;;3.33;;
9306;SDS011;4691;47.612;7.610;2022-10-16T08:20:40;6.03;;;3.05;;
9306;SDS011;4691;47.612;7.610;2022-10-16T08:23:11;7.60;;;3.22;;
9306;SDS011;4691;47.612;7.610;2022-10-16T08:28:04;3.15;;;2.60;;
9306;SDS011;4691;47.612;7.610;2022-10-16T08:30:32;11.70;;;4.05;;
9306;SDS011;4691;47.612;7.610;2022-10-16T08:32:58;10.00;;;2.70;;
9306;SDS011;4691;47.612;7.610;2022-10-16T08:35:23;5.15;;;2.63;;
9306;SDS011;4691;47.612;7.610;2022-10-16T08:37:49;7.45;;;2.50;;
9306;SDS011;4691;47.612;7.610;2022-10-16T08:40:24;6.13;;;2.78;;
9306;SDS011;4691;47.612;7.610;2022-10-16T08:43:04;3.63;;;2.85;;
9306;SDS011;4691;47.612;7.610;2022-10-16T08:51:00;4.38;;;2.58;;
9306;SDS011;4691;47.612;7.610;2022-10-16T08:53:31;5.38;;;2.90;;
9306;SDS011;4691;47.612;7.610;2022-10-16T08:56:03;4.57;;;2.88;;
9306;SDS011;4691;47.612;7.610;2022-10-16T08:58:29;5.30;;;2.55;;
9306;SDS011;4691;47.612;7.610;2022-10-16T09:00:56;8.27;;;2.90;;
9306;SDS011;4691;47.612;7.610;2022-10-16T09:14:32;3.65;;;2.70;;
9306;SDS011;4691;47.612;7.610;2022-10-16T09:19:41;6.32;;;2.67;;
9306;SDS011;4691;47.612;7.610;2022-10-16T09:22:29;7.60;;;2.88;;
9306;SDS011;4691;47.612;7.610;2022-10-16T09:24:59;6.63;;;2.63;;
9306;SDS011;4691;47.612;7.610;2022-10-16T09:27:30;8.35;;;2.70;;
9306;SDS011;4691;47.612;7.610;2022-10-16T09:29:55;6.63;;;2.85;;
9306;SDS011;4691;47.612;7.610;2022-10-16T09:32:21;6.20;;;3.05;;
9306;SDS011;4691;47.612;7.610;2022-10-16T09:34:49;3.38;;;2.80;;
9306;SDS011;4691;47.612;7.610;2022-10-16T09:39:44;4.55;;;2.38;;
9306;SDS011;4691;47.612;7.610;2022-10-16T09:42:14;4.97;;;2.33;;
9306;SDS011;4691;47.612;7.610;2022-10-16T09:44:41;6.40;;;2.50;;
9306;SDS011;4691;47.612;7.610;2022-10-16T09:47:18;2.80;;;2.03;;
9306;SDS011;4691;47.612;7.610;2022-10-16T09:49:53;4.47;;;2.33;;
9306;SDS011;4691;47.612;7.610;2022-10-16T09:52:25;6.85;;;2.13;;
9306;SDS011;4691;47.612;7.610;2022-10-16T09:55:12;4.22;;;2.00;;
9306;SDS011;4691;47.612;7.610;2022-10-16T09:57:52;4.03;;;2.30;;
9306;SDS011;4691;47.612;7.610;2022-10-16T10:00:18;4.22;;;1.70;;
9306;SDS011;4691;47.612;7.610;2022-10-16T10:02:44;4.45;;;1.85;;
9306;SDS011;4691;47.612;7.610;2022-10-16T10:05:23;2.83;;;2.10;;
9306;SDS011;4691;47.612;7.610;2022-10-16T10:07:57;8.52;;;2.28;;
9306;SDS011;4691;47.612;7.610;2022-10-16T10:10:25;5.18;;;2.15;;
9306;SDS011;4691;47.612;7.610;2022-10-16T10:12:53;2.83;;;2.03;;
9306;SDS011;4691;47.612;7.610;2022-10-16T10:15:19;7.40;;;2.65;;
9306;SDS011;4691;47.612;7.610;2022-10-16T10:17:48;6.05;;;2.20;;
9306;SDS011;4691;47.612;7.610;2022-10-16T10:20:34;4.07;;;1.90;;
9306;SDS011;4691;47.612;7.610;2022-10-16T10:23:21;6.90;;;1.98;;
9306;SDS011;4691;47.612;7.610;2022-10-16T10:25:49;3.75;;;2.20;;
9306;SDS011;4691;47.612;7.610;2022-10-16T10:28:32;6.22;;;2.00;;
9306;SDS011;4691;47.612;7.610;2022-10-16T10:31:24;6.45;;;1.98;;
9306;SDS011;4691;47.612;7.610;2022-10-16T10:36:42;5.50;;;2.10;;
9306;SDS011;4691;47.612;7.610;2022-10-16T10:39:49;7.22;;;1.95;;
9306;SDS011;4691;47.612;7.610;2022-10-16T10:45:17;6.90;;;1.98;;
9306;SDS011;4691;47.612;7.610;2022-10-16T10:58:18;8.30;;;2.45;;
9306;SDS011;4691;47.612;7.610;2022-10-16T11:01:13;5.32;;;2.05;;
9306;SDS011;4691;47.612;7.610;2022-10-16T11:09:13;4.90;;;2.00;;
9306;SDS011;4691;47.612;7.610;2022-10-16T11:11:51;5.30;;;2.30;;
9306;SDS011;4691;47.612;7.610;2022-10-16T11:14:24;5.05;;;2.15;;
9306;SDS011;4691;47.612;7.610;2022-10-16T11:16:56;7.20;;;2.35;;
9306;SDS011;4691;47.612;7.610;2022-10-16T11:22:18;7.55;;;2.20;;
9306;SDS011;4691;47.612;7.610;2022-10-16T11:27:43;6.80;;;2.30;;
9306;SDS011;4691;47.612;7.610;2022-10-16T11:30:16;3.78;;;2.10;;
9306;SDS011;4691;47.612;7.610;2022-10-16T11:35:39;6.78;;;2.35;;
9306;SDS011;4691;47.612;7.610;2022-10-16T11:38:29;4.47;;;1.98;;
9306;SDS011;4691;47.612;7.610;2022-10-16T11:41:04;7.97;;;2.53;;
9306;SDS011;4691;47.612;7.610;2022-10-16T11:43:46;6.07;;;2.20;;
9306;SDS011;4691;47.612;7.610;2022-10-16T11:46:21;6.25;;;2.13;;
9306;SDS011;4691;47.612;7.610;2022-10-16T11:48:57;6.50;;;2.30;;
9306;SDS011;4691;47.612;7.610;2022-10-16T11:51:33;6.20;;;2.08;;
9306;SDS011;4691;47.612;7.610;2022-10-16T11:54:28;3.20;;;2.40;;
9306;SDS011;4691;47.612;7.610;2022-10-16T11:57:01;10.63;;;2.10;;
9306;SDS011;4691;47.612;7.610;2022-10-16T11:59:45;7.53;;;2.05;;
9306;SDS011;4691;47.612;7.610;2022-10-16T12:02:28;9.07;;;2.65;;
9306;SDS011;4691;47.612;7.610;2022-10-16T12:07:59;5.65;;;2.55;;
9306;SDS011;4691;47.612;7.610;2022-10-16T12:10:34;7.53;;;2.40;;
9306;SDS011;4691;47.612;7.610;2022-10-16T12:15:48;9.18;;;2.30;;
9306;SDS011;4691;47.612;7.610;2022-10-16T12:18:21;3.97;;;2.40;;
9306;SDS011;4691;47.612;7.610;2022-10-16T12:20:54;6.60;;;2.20;;
9306;SDS011;4691;47.612;7.610;2022-10-16T12:23:24;7.70;;;2.50;;
9306;SDS011;4691;47.612;7.610;2022-10-16T12:25:53;4.72;;;2.00;;
9306;SDS011;4691;47.612;7.610;2022-10-16T12:28:21;4.55;;;1.90;;
9306;SDS011;4691;47.612;7.610;2022-10-16T12:30:56;6.80;;;2.20;;
9306;SDS011;4691;47.612;7.610;2022-10-16T12:33:25;5.03;;;2.30;;
9306;SDS011;4691;47.612;7.610;2022-10-16T12:35:53;8.27;;;2.40;;
9306;SDS011;4691;47.612;7.610;2022-10-16T12:38:25;7.10;;;2.22;;
9306;SDS011;4691;47.612;7.610;2022-10-16T12:40:58;4.15;;;2.08;;
9306;SDS011;4691;47.612;7.610;2022-10-16T12:48:36;3.92;;;1.95;;
9306;SDS011;4691;47.612;7.610;2022-10-16T12:51:11;5.63;;;2.10;;
9306;SDS011;4691;47.612;7.610;2022-10-16T12:54:11;6.85;;;2.20;;
9306;SDS011;4691;47.612;7.610;2022-10-16T13:35:35;2.67;;;1.85;;
9306;SDS011;4691;47.612;7.610;2022-10-16T13:38:58;6.65;;;1.95;;
9306;SDS011;4691;47.612;7.610;2022-10-16T13:45:33;5.82;;;2.25;;
9306;SDS011;4691;47.612;7.610;2022-10-16T13:48:55;3.00;;;1.80;;
9306;SDS011;4691;47.612;7.610;2022-10-16T13:52:15;15.38;;;2.30;;
9306;SDS011;4691;47.612;7.610;2022-10-16T13:55:17;7.32;;;2.17;;
9306;SDS011;4691;47.612;7.610;2022-10-16T13:58:01;9.50;;;2.20;;
9306;SDS011;4691;47.612;7.610;2022-10-16T14:00:55;5.80;;;2.08;;
9306;SDS011;4691;47.612;7.610;2022-10-16T14:03:52;5.53;;;1.92;;
9306;SDS011;4691;47.612;7.610;2022-10-16T14:06:21;9.70;;;2.03;;
9306;SDS011;4691;47.612;7.610;2022-10-16T14:09:05;2.63;;;1.85;;
9306;SDS011;4691;47.612;7.610;2022-10-16T14:11:48;6.30;;;1.95;;
9306;SDS011;4691;47.612;7.610;2022-10-16T14:14:27;9.02;;;2.25;;
9306;SDS011;4691;47.612;7.610;2022-10-16T14:17:06;7.32;;;2.42;;
9306;SDS011;4691;47.612;7.610;2022-10-16T14:19:38;5.70;;;2.20;;
9306;SDS011;4691;47.612;7.610;2022-10-16T14:22:22;7.78;;;1.77;;
9306;SDS011;4691;47.612;7.610;2022-10-16T14:31:24;7.43;;;2.00;;
9306;SDS011;4691;47.612;7.610;2022-10-16T14:34:28;5.80;;;1.92;;
9306;SDS011;4691;47.612;7.610;2022-10-16T14:37:15;4.97;;;1.80;;
9306;SDS011;4691;47.612;7.610;2022-10-16T14:39:50;2.90;;;1.77;;
9306;SDS011;4691;47.612;7.610;2022-10-16T14:42:19;7.95;;;2.13;;
9306;SDS011;4691;47.612;7.610;2022-10-16T14:44:59;5.18;;;2.13;;
9306;SDS011;4691;47.612;7.610;2022-10-16T14:47:27;2.83;;;1.83;;
9306;SDS011;4691;47.612;7.610;2022-10-16T14:53:17;7.63;;;2.47;;
9306;SDS011;4691;47.612;7.610;2022-10-16T14:55:53;5.20;;;2.20;;
9306;SDS011;4691;47.612;7.610;2022-10-16T14:58:49;6.13;;;2.50;;
9306;SDS011;4691;47.612;7.610;2022-10-16T15:01:20;6.13;;;2.45;;
9306;SDS011;4691;47.612;7.610;2022-10-16T15:03:50;10.00;;;2.17;;
9306;SDS011;4691;47.612;7.610;2022-10-16T15:06:20;6.78;;;2.60;;
9306;SDS011;4691;47.612;7.610;2022-10-16T15:09:05;7.47;;;2.30;;
9306;SDS011;4691;47.612;7.610;2022-10-16T15:11:47;6.77;;;2.27;;
9306;SDS011;4691;47.612;7.610;2022-10-16T15:14:14;9.82;;;2.42;;
9306;SDS011;4691;47.612;7.610;2022-10-16T15:16:47;4.45;;;2.10;;
9306;SDS011;4691;47.612;7.610;2022-10-16T15:19:15;4.60;;;2.20;;
9306;SDS011;4691;47.612;7.610;2022-10-16T15:21:50;4.25;;;1.92;;
9306;SDS011;4691;47.612;7.610;2022-10-16T15:24:17;8.65;;;2.50;;
9306;SDS011;4691;47.612;7.610;2022-10-16T15:26:43;13.50;;;2.58;;
9306;SDS011;4691;47.612;7.610;2022-10-16T15:29:11;5.57;;;2.58;;
9306;SDS011;4691;47.612;7.610;2022-10-16T15:31:39;5.75;;;2.65;;
9306;SDS011;4691;47.612;7.610;2022-10-16T15:34:10;4.95;;;2.47;;
9306;SDS011;4691;47.612;7.610;2022-10-16T15:36:40;5.70;;;2.30;;
9306;SDS011;4691;47.612;7.610;2022-10-16T15:39:12;7.45;;;3.47;;
9306;SDS011;4691;47.612;7.610;2022-10-16T15:41:42;7.28;;;2.55;;
9306;SDS011;4691;47.612;7.610;2022-10-16T15:44:11;5.85;;;2.50;;
9306;SDS011;4691;47.612;7.610;2022-10-16T15:46:39;9.43;;;2.70;;
9306;SDS011;4691;47.612;7.610;2022-10-16T15:49:04;3.83;;;2.70;;
9306;SDS011;4691;47.612;7.610;2022-10-16T15:51:30;7.07;;;3.05;;
9306;SDS011;4691;47.612;7.610;2022-10-16T15:53:57;8.88;;;3.03;;
9306;SDS011;4691;47.612;7.610;2022-10-16T15:56:29;7.32;;;2.65;;
9306;SDS011;4691;47.612;7.610;2022-10-16T15:58:58;5.15;;;2.55;;
9306;SDS011;4691;47.612;7.610;2022-10-16T16:01:23;6.18;;;2.88;;
9306;SDS011;4691;47.612;7.610;2022-10-16T16:03:55;10.52;;;3.22;;
9306;SDS011;4691;47.612;7.610;2022-10-16T16:06:26;8.27;;;2.80;;
9306;SDS011;4691;47.612;7.610;2022-10-16T16:08:54;8.23;;;3.17;;
9306;SDS011;4691;47.612;7.610;2022-10-16T16:11:20;5.72;;;2.97;;
9306;SDS011;4691;47.612;7.610;2022-10-16T16:13:48;12.70;;;3.95;;
9306;SDS011;4691;47.612;7.610;2022-10-16T16:16:15;9.65;;;3.20;;
9306;SDS011;4691;47.612;7.610;2022-10-16T16:18:44;9.15;;;2.95;;
9306;SDS011;4691;47.612;7.610;2022-10-16T16:21:15;7.93;;;3.28;;
9306;SDS011;4691;47.612;7.610;2022-10-16T16:23:43;8.32;;;3.60;;
9306;SDS011;4691;47.612;7.610;2022-10-16T16:26:24;4.80;;;3.20;;
9306;SDS011;4691;47.612;7.610;2022-10-16T16:29:05;13.00;;;5.72;;
9306;SDS011;4691;47.612;7.610;2022-10-16T16:31:55;8.25;;;4.90;;
9306;SDS011;4691;47.612;7.610;2022-10-16T16:34:51;8.60;;;4.50;;
9306;SDS011;4691;47.612;7.610;2022-10-16T16:37:54;7.80;;;3.67;;
9306;SDS011;4691;47.612;7.610;2022-10-16T16:40:49;8.75;;;3.53;;
9306;SDS011;4691;47.612;7.610;2022-10-16T16:43:36;9.73;;;3.43;;
9306;SDS011;4691;47.612;7.610;2022-10-16T16:49:19;9.25;;;3.80;;
9306;SDS011;4691;47.612;7.610;2022-10-16T16:51:59;7.45;;;3.75;;
9306;SDS011;4691;47.612;7.610;2022-10-16T17:01:03;6.80;;;2.90;;
9306;SDS011;4691;47.612;7.610;2022-10-16T17:03:58;10.32;;;3.25;;
9306;SDS011;4691;47.612;7.610;2022-10-16T17:07:01;7.03;;;3.35;;
9306;SDS011;4691;47.612;7.610;2022-10-16T17:09:28;5.70;;;3.30;;
9306;SDS011;4691;47.612;7.610;2022-10-16T17:12:24;8.10;;;3.35;;
9306;SDS011;4691;47.612;7.610;2022-10-16T17:15:23;5.53;;;2.95;;
9306;SDS011;4691;47.612;7.610;2022-10-16T17:22:02;6.05;;;2.90;;
9306;SDS011;4691;47.612;7.610;2022-10-16T17:25:28;7.40;;;3.63;;
9306;SDS011;4691;47.612;7.610;2022-10-16T17:34:29;6.13;;;3.30;;
9306;SDS011;4691;47.612;7.610;2022-10-16T17:40:06;10.40;;;4.32;;
9306;SDS011;4691;47.612;7.610;2022-10-16T17:42:37;9.93;;;3.60;;
9306;SDS011;4691;47.612;7.610;2022-10-16T17:45:06;13.23;;;4.07;;
9306;SDS011;4691;47.612;7.610;2022-10-16T17:50:49;11.60;;;6.10;;
9306;SDS011;4691;47.612;7.610;2022-10-16T17:53:33;13.35;;;4.45;;
9306;SDS011;4691;47.612;7.610;2022-10-16T17:56:04;12.02;;;4.70;;
9306;SDS011;4691;47.612;7.610;2022-10-16T17:58:33;10.90;;;4.70;;
9306;SDS011;4691;47.612;7.610;2022-10-16T18:01:12;34.65;;;8.10;;
9306;SDS011;4691;47.612;7.610;2022-10-16T18:03:53;6.95;;;4.20;;
9306;SDS011;4691;47.612;7.610;2022-10-16T18:06:29;10.75;;;4.20;;
9306;SDS011;4691;47.612;7.610;2022-10-16T18:09:11;8.45;;;4.32;;
9306;SDS011;4691;47.612;7.610;2022-10-16T18:11:42;8.02;;;4.20;;
9306;SDS011;4691;47.612;7.610;2022-10-16T18:14:28;7.63;;;4.63;;
9306;SDS011;4691;47.612;7.610;2022-10-16T18:16:59;7.95;;;4.07;;
9306;SDS011;4691;47.612;7.610;2022-10-16T18:19:25;14.30;;;3.53;;
9306;SDS011;4691;47.612;7.610;2022-10-16T18:22:00;8.13;;;3.92;;